createdAt,value
2024-01-31T00:01:33.467Z,106.00
2024-01-31T00:04:02.323Z,95.00
2024-01-31T00:06:30.734Z,103.00
2024-01-31T00:08:59.024Z,81.50
2024-01-31T00:11:30.255Z,76.00
2024-01-31T00:13:58.785Z,83.00
2024-01-31T00:16:26.832Z,92.50
2024-01-31T00:18:55.364Z,87.00
2024-01-31T00:21:25.243Z,80.00
2024-01-31T00:23:54.642Z,84.00
2024-01-31T00:26:22.920Z,84.00
2024-01-31T00:28:51.041Z,82.00
2024-01-31T00:31:19.318Z,87.00
2024-01-31T00:33:49.030Z,82.00
2024-01-31T00:36:17.196Z,84.00
2024-01-31T00:38:45.379Z,93.00
2024-01-31T00:41:13.490Z,87.67
2024-01-31T00:43:41.686Z,89.00
2024-01-31T00:46:10.031Z,87.50
2024-01-31T00:48:38.474Z,86.00
2024-01-31T00:51:13.471Z,87.00
2024-01-31T00:53:41.548Z,90.00
2024-01-31T00:56:12.653Z,87.67
2024-01-31T00:58:40.950Z,86.00
2024-01-31T01:01:11.706Z,88.00
2024-01-31T01:03:40.102Z,94.00
2024-01-31T01:06:08.343Z,96.00
2024-01-31T01:08:37.081Z,90.50
2024-01-31T01:11:05.239Z,85.50
2024-01-31T01:13:33.400Z,92.50
2024-01-31T01:16:01.590Z,86.67
2024-01-31T01:18:31.885Z,86.50
2024-01-31T01:21:00.148Z,84.00
2024-01-31T01:23:28.252Z,84.00
2024-01-31T01:25:56.306Z,90.33
2024-01-31T01:28:24.530Z,88.00
2024-01-31T01:30:52.576Z,86.00
2024-01-31T01:33:20.660Z,83.00
2024-01-31T01:35:48.842Z,98.50
2024-01-31T01:38:17.046Z,85.00
2024-01-31T01:40:46.261Z,85.50
2024-01-31T01:43:18.835Z,90.00
2024-01-31T01:45:47.545Z,86.00
2024-01-31T01:48:17.578Z,89.00
2024-01-31T01:50:46.584Z,90.00
2024-01-31T01:53:15.265Z,89.00
2024-01-31T01:55:45.023Z,84.00
2024-01-31T01:58:13.721Z,92.00
2024-01-31T02:00:45.712Z,90.00
2024-01-31T02:03:16.407Z,93.67
2024-01-31T02:05:46.978Z,101.00
2024-01-31T02:08:15.080Z,94.00
2024-01-31T02:10:43.579Z,112.00
2024-01-31T02:13:12.010Z,128.00
2024-01-31T02:15:40.496Z,127.50
2024-01-31T02:18:09.281Z,117.00
2024-01-31T02:20:37.901Z,115.00
2024-01-31T02:23:06.858Z,102.50
2024-01-31T02:28:50.659Z,97.00
2024-01-31T02:34:34.677Z,108.00
2024-01-31T02:37:03.188Z,108.00
2024-01-31T02:39:34.997Z,115.50
2024-01-31T02:42:03.530Z,121.50
2024-01-31T02:44:31.580Z,111.00
2024-01-31T02:46:59.717Z,122.50
2024-01-31T02:49:27.894Z,107.00
2024-01-31T02:51:55.936Z,114.00
2024-01-31T02:54:23.933Z,111.00
2024-01-31T02:56:51.887Z,118.00
2024-01-31T02:59:21.880Z,115.00
2024-01-31T03:01:51.240Z,95.00
2024-01-31T03:04:19.709Z,111.00
2024-01-31T03:06:47.964Z,84.25
2024-01-31T03:09:16.502Z,80.00
2024-01-31T03:11:44.612Z,80.00
2024-01-31T03:14:12.752Z,86.50
2024-01-31T03:16:41.684Z,82.00
2024-01-31T03:19:10.728Z,82.00
2024-01-31T03:21:39.652Z,78.50
2024-01-31T03:24:08.294Z,80.00
2024-01-31T03:26:36.331Z,82.00
2024-01-31T03:29:04.479Z,80.00
2024-01-31T03:31:32.722Z,84.50
2024-01-31T03:34:01.178Z,83.00
2024-01-31T03:36:29.465Z,81.50
2024-01-31T03:39:00.199Z,86.67
2024-01-31T03:43:57.549Z,81.33
2024-01-31T03:46:26.487Z,82.00
2024-01-31T03:48:54.618Z,83.50
2024-01-31T03:51:24.122Z,81.00
2024-01-31T03:53:52.250Z,81.50
2024-01-31T03:56:20.596Z,84.00
2024-01-31T03:58:48.846Z,79.00
2024-01-31T04:01:19.339Z,81.50
2024-01-31T04:03:47.873Z,80.00
2024-01-31T04:06:16.129Z,81.00
2024-01-31T04:08:44.187Z,84.33
2024-01-31T04:11:12.268Z,82.00
2024-01-31T04:13:43.815Z,85.00
2024-01-31T04:16:17.007Z,84.00
2024-01-31T04:18:45.249Z,83.00
2024-01-31T04:21:22.551Z,88.00
2024-01-31T04:23:50.883Z,86.00
2024-01-31T04:26:19.084Z,84.00
2024-01-31T04:28:47.314Z,83.00
2024-01-31T04:33:44.957Z,81.50
2024-01-31T04:36:13.228Z,82.00
2024-01-31T04:38:41.320Z,80.00
2024-01-31T04:41:09.921Z,88.50
2024-01-31T04:43:38.045Z,87.33
2024-01-31T04:46:06.231Z,82.00
2024-01-31T04:48:34.451Z,78.00
2024-01-31T04:51:03.968Z,84.00
2024-01-31T04:53:32.041Z,88.50
2024-01-31T04:56:01.369Z,82.67
2024-01-31T04:58:29.478Z,81.00
2024-01-31T05:00:57.557Z,83.00
2024-01-31T05:03:25.869Z,86.00
2024-01-31T05:05:54.082Z,83.33
2024-01-31T05:08:22.236Z,85.00
2024-01-31T05:10:50.360Z,85.50
2024-01-31T05:13:18.457Z,84.00
2024-01-31T05:15:46.430Z,81.00
2024-01-31T05:18:15.878Z,82.33
2024-01-31T05:20:44.103Z,86.00
2024-01-31T05:23:12.317Z,89.00
2024-01-31T05:25:40.461Z,88.50
2024-01-31T05:28:08.689Z,79.00
2024-01-31T05:30:36.889Z,83.33
2024-01-31T05:33:05.275Z,86.00
2024-01-31T05:35:37.195Z,86.00
2024-01-31T05:38:06.296Z,81.00
2024-01-31T05:40:34.357Z,89.50
2024-01-31T05:43:03.000Z,102.00
2024-01-31T05:45:31.131Z,111.50
2024-01-31T05:47:59.363Z,88.00
2024-01-31T05:50:27.642Z,88.00
2024-01-31T05:52:55.740Z,88.00
2024-01-31T05:55:24.300Z,88.00
2024-01-31T05:57:53.242Z,85.50
2024-01-31T06:00:21.641Z,99.00
2024-01-31T06:02:52.152Z,169.00
2024-01-31T06:05:23.540Z,118.00
2024-01-31T06:10:21.070Z,105.00
2024-01-31T06:12:49.288Z,101.50
2024-01-31T06:15:18.063Z,89.00
2024-01-31T06:17:49.699Z,100.00
2024-01-31T06:20:19.236Z,95.67
2024-01-31T06:22:47.472Z,81.33
2024-01-31T06:25:15.718Z,110.00
2024-01-31T06:27:43.862Z,88.50
2024-01-31T06:30:20.820Z,107.00
2024-01-31T06:32:49.397Z,105.50
2024-01-31T06:35:17.780Z,102.50
2024-01-31T06:37:46.560Z,121.00
2024-01-31T06:40:14.827Z,132.00
2024-01-31T06:42:42.916Z,92.00
2024-01-31T06:45:14.070Z,90.50
2024-01-31T06:47:44.058Z,85.00
2024-01-31T06:50:13.434Z,90.00
2024-01-31T06:52:41.928Z,84.00
2024-01-31T06:55:10.421Z,92.67
2024-01-31T06:57:39.048Z,96.00
2024-01-31T07:00:08.948Z,99.00
2024-01-31T07:02:38.070Z,84.00
2024-01-31T07:05:06.356Z,78.00
2024-01-31T07:07:34.990Z,79.00
2024-01-31T07:10:03.376Z,78.00
2024-01-31T07:12:31.539Z,85.00
2024-01-31T07:14:59.539Z,85.00
2024-01-31T07:17:27.692Z,82.50
2024-01-31T07:19:55.836Z,71.33
2024-01-31T07:22:24.128Z,72.00
2024-01-31T07:24:52.119Z,63.00
2024-01-31T07:27:20.166Z,64.00
2024-01-31T07:29:48.226Z,63.00
2024-01-31T07:32:16.290Z,63.00
2024-01-31T07:34:44.348Z,62.00
2024-01-31T07:37:12.657Z,59.00
2024-01-31T07:39:40.670Z,62.00
2024-01-31T07:42:10.095Z,63.50
2024-01-31T07:44:38.854Z,63.50
2024-01-31T07:47:07.414Z,69.00
2024-01-31T07:49:35.660Z,67.00
2024-01-31T07:52:04.047Z,63.00
2024-01-31T07:54:32.184Z,64.50
2024-01-31T07:57:00.869Z,71.00
2024-01-31T07:59:28.913Z,69.00
2024-01-31T08:01:57.015Z,74.00
2024-01-31T08:04:25.131Z,68.00
2024-01-31T08:06:53.199Z,73.67
2024-01-31T08:09:24.050Z,70.00
2024-01-31T08:11:52.085Z,70.50
2024-01-31T08:14:20.389Z,70.00
2024-01-31T08:16:51.345Z,68.50
2024-01-31T08:19:20.088Z,71.00
2024-01-31T08:21:48.282Z,72.00
2024-01-31T08:24:16.984Z,72.00
2024-01-31T08:26:45.790Z,77.00
2024-01-31T08:29:20.580Z,78.67
2024-01-31T08:31:55.492Z,73.50
2024-01-31T08:34:27.228Z,79.00
2024-01-31T08:36:57.880Z,78.00
2024-01-31T08:39:26.106Z,73.00
2024-01-31T08:41:54.412Z,70.50
2024-01-31T08:44:23.866Z,76.00
2024-01-31T08:47:04.014Z,72.50
2024-01-31T08:49:41.635Z,70.00
2024-01-31T08:52:10.020Z,76.00
2024-01-31T08:54:38.398Z,72.00
2024-01-31T08:57:06.530Z,68.50
2024-01-31T08:59:34.965Z,73.00
2024-01-31T09:02:03.157Z,68.50
2024-01-31T09:04:31.475Z,70.00
2024-01-31T09:06:59.739Z,68.00
2024-01-31T09:09:28.081Z,68.00
2024-01-31T09:11:56.416Z,68.67
2024-01-31T09:14:24.635Z,70.00
2024-01-31T09:16:52.738Z,69.00
2024-01-31T09:19:23.707Z,63.50
2024-01-31T09:21:52.393Z,70.00
2024-01-31T09:24:20.544Z,64.50
2024-01-31T09:26:48.698Z,69.50
2024-01-31T09:29:16.669Z,60.00
2024-01-31T09:31:44.820Z,65.00
2024-01-31T09:34:13.169Z,59.00
2024-01-31T09:36:41.796Z,63.00
2024-01-31T09:39:11.425Z,61.67
2024-01-31T09:41:39.663Z,59.00
2024-01-31T09:44:08.469Z,59.50
2024-01-31T09:46:37.557Z,56.00
2024-01-31T09:49:05.909Z,55.00
2024-01-31T09:51:34.871Z,53.50
2024-01-31T09:54:03.070Z,55.33
2024-01-31T09:56:33.579Z,53.50
2024-01-31T09:59:02.007Z,54.00
2024-01-31T10:01:32.926Z,56.50
2024-01-31T10:04:02.167Z,52.00
2024-01-31T10:06:31.236Z,51.50
2024-01-31T10:09:00.672Z,45.00
2024-01-31T10:11:31.374Z,52.00
2024-01-31T10:13:59.659Z,54.00
2024-01-31T10:16:28.086Z,56.00
2024-01-31T10:18:56.384Z,51.00
2024-01-31T10:21:24.571Z,51.00
2024-01-31T10:24:00.354Z,53.50
2024-01-31T10:26:29.255Z,52.00
2024-01-31T10:29:08.913Z,53.50
2024-01-31T10:31:41.650Z,55.00
2024-01-31T10:34:11.962Z,52.50
2024-01-31T10:37:26.842Z,54.00
2024-01-31T10:39:34.203Z,57.00
2024-01-31T10:42:02.645Z,56.00
2024-01-31T10:44:33.250Z,54.50
2024-01-31T10:47:01.728Z,56.67
2024-01-31T10:49:30.194Z,54.00
2024-01-31T10:52:01.253Z,55.50
2024-01-31T10:54:33.891Z,50.00
2024-01-31T10:57:04.802Z,52.00
2024-01-31T10:59:38.929Z,48.00
2024-01-31T11:02:15.065Z,51.00
2024-01-31T11:04:44.297Z,48.00
2024-01-31T11:07:19.874Z,51.00
2024-01-31T11:09:49.292Z,51.67
2024-01-31T11:12:18.098Z,48.00
2024-01-31T11:14:48.068Z,54.00
2024-01-31T11:17:23.752Z,52.50
2024-01-31T11:19:54.313Z,49.50
2024-01-31T11:22:22.769Z,53.00
2024-01-31T11:24:55.841Z,56.00
2024-01-31T11:27:24.411Z,57.50
2024-01-31T11:29:53.678Z,51.00
2024-01-31T11:32:23.673Z,51.50
2024-01-31T11:35:05.935Z,52.50
2024-01-31T11:37:34.394Z,53.00
2024-01-31T11:40:02.892Z,52.50
2024-01-31T11:42:31.135Z,49.00
2024-01-31T11:44:59.466Z,53.00
2024-01-31T11:47:29.326Z,55.00
2024-01-31T11:50:05.531Z,55.00
2024-01-31T11:52:33.811Z,60.00
2024-01-31T11:55:01.945Z,58.00
2024-01-31T11:57:30.537Z,61.00
2024-01-31T11:59:58.824Z,56.00
2024-01-31T12:02:27.477Z,56.50
2024-01-31T12:05:00.044Z,55.00
2024-01-31T12:07:30.446Z,52.00
2024-01-31T12:09:59.861Z,54.50
2024-01-31T12:12:28.276Z,55.00
2024-01-31T12:14:56.643Z,54.00
2024-01-31T12:17:29.059Z,56.33
2024-01-31T12:20:08.064Z,52.33
2024-01-31T12:22:38.126Z,50.00
2024-01-31T12:25:07.379Z,55.00
2024-01-31T12:27:35.617Z,51.50
2024-01-31T12:30:04.872Z,47.00
2024-01-31T12:32:33.129Z,49.00
2024-01-31T12:35:01.533Z,50.00
2024-01-31T12:37:29.748Z,50.00
2024-01-31T12:39:57.825Z,48.00
2024-01-31T12:42:26.487Z,51.00
2024-01-31T12:44:56.737Z,51.00
2024-01-31T12:47:25.955Z,47.00
2024-01-31T12:49:54.182Z,45.50
2024-01-31T12:52:26.648Z,43.33
2024-01-31T12:54:55.455Z,39.00
2024-01-31T12:57:23.683Z,45.00
2024-01-31T12:59:53.460Z,44.33
2024-01-31T13:02:21.818Z,37.00
2024-01-31T13:04:50.429Z,39.00
2024-01-31T13:07:19.105Z,39.00
2024-01-31T13:09:47.679Z,40.00
2024-01-31T13:12:16.522Z,40.00
2024-01-31T13:14:44.988Z,39.00
2024-01-31T13:17:13.269Z,42.00
2024-01-31T13:19:41.396Z,40.00
2024-01-31T13:22:09.959Z,40.50
2024-01-31T13:24:39.216Z,41.00
2024-01-31T13:27:07.562Z,34.00
2024-01-31T13:29:36.147Z,36.00
2024-01-31T13:32:04.875Z,36.67
2024-01-31T13:34:33.168Z,44.00
2024-01-31T13:37:02.234Z,36.00
2024-01-31T13:39:30.284Z,41.00
2024-01-31T13:42:02.562Z,37.00
2024-01-31T13:44:30.719Z,37.00
2024-01-31T13:46:58.860Z,39.50
2024-01-31T13:49:27.485Z,42.00
2024-01-31T13:51:55.595Z,41.00
2024-01-31T13:54:23.532Z,41.00
2024-01-31T13:56:51.571Z,37.00
2024-01-31T13:59:19.749Z,36.67
2024-01-31T14:01:47.846Z,41.00
2024-01-31T14:04:17.480Z,45.50
2024-01-31T14:06:45.585Z,38.00
2024-01-31T14:09:13.596Z,40.33
2024-01-31T14:14:09.730Z,42.00
2024-01-31T14:16:37.795Z,42.00
2024-01-31T14:19:05.782Z,36.33
2024-01-31T14:21:33.928Z,40.00
2024-01-31T14:24:09.478Z,29.67
2024-01-31T14:26:43.749Z,38.00
2024-01-31T14:29:14.519Z,37.00
2024-01-31T14:31:47.158Z,41.00
2024-01-31T14:34:15.855Z,34.50
2024-01-31T14:36:45.585Z,38.00
2024-01-31T14:39:14.070Z,37.50
2024-01-31T14:41:43.787Z,37.50
2024-01-31T14:46:41.588Z,33.00
2024-01-31T14:49:13.488Z,40.00
2024-01-31T14:51:42.211Z,41.00
2024-01-31T14:54:11.270Z,38.00
2024-01-31T14:56:53.020Z,41.50
2024-01-31T14:59:22.649Z,39.00
2024-01-31T15:01:51.246Z,46.00
2024-01-31T15:04:19.529Z,48.00
2024-01-31T15:06:47.912Z,49.00
2024-01-31T15:09:17.429Z,47.00
2024-01-31T15:11:46.264Z,44.00
2024-01-31T15:14:14.529Z,45.00
2024-01-31T15:16:42.611Z,42.00
2024-01-31T15:19:11.024Z,41.00
2024-01-31T15:21:40.422Z,43.00
2024-01-31T15:24:08.963Z,47.00
2024-01-31T15:26:37.296Z,44.50
2024-01-31T15:29:05.459Z,38.67
2024-01-31T15:31:34.037Z,46.00
2024-01-31T15:34:02.438Z,48.00
2024-01-31T15:36:30.914Z,46.00
2024-01-31T15:39:02.016Z,49.67
2024-01-31T15:41:30.377Z,54.00
2024-01-31T15:43:58.571Z,53.00
2024-01-31T15:46:28.291Z,50.00
2024-01-31T15:48:56.803Z,54.00
2024-01-31T15:51:26.214Z,59.50
2024-01-31T15:53:54.661Z,56.00
2024-01-31T15:56:23.005Z,55.50
2024-01-31T15:58:51.245Z,84.00
2024-01-31T16:01:19.416Z,186.00
2024-01-31T16:03:47.492Z,132.00
2024-01-31T16:06:15.751Z,101.00
2024-01-31T16:08:44.073Z,91.00
2024-01-31T16:11:14.190Z,86.00
2024-01-31T16:13:42.270Z,88.50
2024-01-31T16:16:12.202Z,95.50
2024-01-31T16:18:40.509Z,120.00
2024-01-31T16:21:11.874Z,118.00
2024-01-31T16:23:41.736Z,122.00
2024-01-31T16:26:09.774Z,116.00
2024-01-31T16:28:37.894Z,102.67
2024-01-31T16:31:06.653Z,103.50
2024-01-31T16:33:34.907Z,112.00
2024-01-31T16:36:03.634Z,118.00
2024-01-31T16:38:31.638Z,123.00
2024-01-31T16:40:59.705Z,107.00
2024-01-31T16:43:28.077Z,97.00
2024-01-31T16:45:56.174Z,107.00
2024-01-31T16:48:24.440Z,129.00
2024-01-31T16:50:52.545Z,111.00
2024-01-31T16:53:20.652Z,104.50
2024-01-31T16:55:48.674Z,111.50
2024-01-31T16:58:16.693Z,118.50
2024-01-31T17:00:44.793Z,124.00
2024-01-31T17:03:13.419Z,122.50
2024-01-31T17:05:42.009Z,163.50
2024-01-31T17:08:10.241Z,190.00
2024-01-31T17:10:38.305Z,171.00
2024-01-31T17:13:06.455Z,194.50
2024-01-31T17:15:34.498Z,155.50
2024-01-31T17:18:05.010Z,174.00
2024-01-31T17:20:33.266Z,216.50
2024-01-31T17:23:02.714Z,214.00
2024-01-31T17:25:32.437Z,198.50
2024-01-31T17:28:00.498Z,231.00
2024-01-31T17:30:28.596Z,170.50
2024-01-31T17:32:56.793Z,185.00
2024-01-31T17:35:24.899Z,165.50
2024-01-31T17:37:52.955Z,184.00
2024-01-31T17:40:22.364Z,133.00
2024-01-31T17:42:50.383Z,122.00
2024-01-31T17:45:18.596Z,174.00
2024-01-31T17:47:47.324Z,208.50
2024-01-31T17:50:15.576Z,232.00
2024-01-31T17:52:44.133Z,224.00
2024-01-31T17:55:14.209Z,206.00
2024-01-31T17:57:42.308Z,199.50
2024-01-31T18:00:11.363Z,176.00
2024-01-31T18:02:39.472Z,174.50
2024-01-31T18:05:08.017Z,162.50
2024-01-31T18:07:36.854Z,116.00
2024-01-31T18:10:05.212Z,125.00
2024-01-31T18:12:33.266Z,186.00
2024-01-31T18:15:01.367Z,397.00
2024-01-31T18:17:30.212Z,245.00
2024-01-31T18:19:58.698Z,137.00
2024-01-31T18:22:26.874Z,139.00
2024-01-31T18:24:54.969Z,181.50
2024-01-31T18:27:23.189Z,151.00
2024-01-31T18:29:51.585Z,130.00
2024-01-31T18:32:26.545Z,92.00
2024-01-31T18:34:55.272Z,142.33
2024-01-31T18:37:23.861Z,151.33
2024-01-31T18:39:51.974Z,142.00
2024-01-31T18:42:19.958Z,153.00
2024-01-31T18:44:48.279Z,111.00
2024-01-31T18:47:16.917Z,124.50
2024-01-31T18:49:45.499Z,138.00
2024-01-31T18:52:13.696Z,131.00
2024-01-31T18:54:41.783Z,118.00
2024-01-31T18:57:09.778Z,141.33
2024-01-31T18:59:37.804Z,148.50
2024-01-31T19:02:07.177Z,116.00
2024-01-31T19:04:35.305Z,135.00
2024-01-31T19:07:04.181Z,102.00
2024-01-31T19:09:32.416Z,125.00
2024-01-31T19:12:00.738Z,122.33
2024-01-31T19:14:28.962Z,116.00
2024-01-31T19:17:00.446Z,139.00
2024-01-31T19:19:32.948Z,117.00
2024-01-31T19:22:03.734Z,125.00
2024-01-31T19:24:35.344Z,238.50
2024-01-31T19:27:03.640Z,191.00
2024-01-31T19:29:34.014Z,184.00
2024-01-31T19:32:02.481Z,123.50
2024-01-31T19:34:30.865Z,155.00
2024-01-31T19:36:58.882Z,136.00
2024-01-31T19:39:27.104Z,125.00
2024-01-31T19:41:55.255Z,102.00
2024-01-31T19:44:23.470Z,130.25
2024-01-31T19:46:58.604Z,86.00
2024-01-31T19:49:28.289Z,79.00
2024-01-31T19:51:57.315Z,101.67
2024-01-31T19:54:25.772Z,655.00
2024-01-31T19:56:54.103Z,452.00
2024-01-31T19:59:24.535Z,272.00
2024-01-31T20:01:52.552Z,169.00
2024-01-31T20:04:21.656Z,147.00
2024-01-31T20:06:49.856Z,165.00
2024-01-31T20:09:18.057Z,209.00
2024-01-31T20:11:47.650Z,170.00
2024-01-31T20:14:15.726Z,132.00
2024-01-31T20:16:43.693Z,117.50
2024-01-31T20:19:12.783Z,166.00
2024-01-31T20:21:41.184Z,249.50
2024-01-31T20:24:09.504Z,209.50
2024-01-31T20:26:38.677Z,165.00
2024-01-31T20:29:09.913Z,216.00
2024-01-31T20:31:37.973Z,116.50
2024-01-31T20:34:07.113Z,154.00
2024-01-31T20:36:35.213Z,152.00
2024-01-31T20:39:03.278Z,163.00
2024-01-31T20:41:32.191Z,157.00
2024-01-31T20:44:00.274Z,197.00
2024-01-31T20:46:30.363Z,169.50
2024-01-31T20:48:59.733Z,134.50
2024-01-31T20:51:27.783Z,143.00
2024-01-31T20:53:56.053Z,124.00
2024-01-31T20:56:26.563Z,137.00
2024-01-31T20:58:57.210Z,156.00
2024-01-31T21:01:26.208Z,152.00
2024-01-31T21:06:22.486Z,127.00
2024-01-31T21:08:50.964Z,107.00
2024-01-31T21:11:19.429Z,112.50
2024-01-31T21:13:47.656Z,118.00
2024-01-31T21:16:15.937Z,112.50
2024-01-31T21:18:44.323Z,113.00
2024-01-31T21:21:12.888Z,131.50
2024-01-31T21:23:41.113Z,134.00
2024-01-31T21:26:09.294Z,120.00
2024-01-31T21:28:37.373Z,113.00
2024-01-31T21:31:05.361Z,197.00
2024-01-31T21:33:33.597Z,156.00
2024-01-31T21:36:03.450Z,157.75
2024-01-31T21:38:31.879Z,150.00
2024-01-31T21:41:00.785Z,131.50
2024-01-31T21:43:29.377Z,154.00
2024-01-31T21:48:28.938Z,167.00
2024-01-31T21:50:57.420Z,161.67
2024-01-31T21:53:25.510Z,170.00
2024-01-31T21:55:53.617Z,177.00
2024-01-31T21:58:22.111Z,169.00
2024-01-31T22:00:50.566Z,181.50
2024-01-31T22:03:18.742Z,180.50
2024-01-31T22:05:47.202Z,158.00
2024-01-31T22:08:15.685Z,173.00
2024-01-31T22:10:43.816Z,169.00
2024-01-31T22:13:11.899Z,194.50
2024-01-31T22:15:39.942Z,177.50
2024-01-31T22:18:08.092Z,188.00
2024-01-31T22:20:36.242Z,220.00
2024-01-31T22:23:04.521Z,199.00
2024-01-31T22:25:33.079Z,184.00
2024-01-31T22:28:03.305Z,189.33
2024-01-31T22:30:31.383Z,188.00
2024-01-31T22:32:59.924Z,164.67
2024-01-31T22:35:28.514Z,188.00
2024-01-31T22:37:56.725Z,182.50
2024-01-31T22:40:28.111Z,175.00
2024-01-31T22:42:56.337Z,170.00
2024-01-31T22:45:25.265Z,166.00
2024-01-31T22:47:53.389Z,154.50
2024-01-31T22:50:21.598Z,164.00
2024-01-31T22:52:49.675Z,160.00
2024-01-31T22:55:19.126Z,165.50
2024-01-31T22:57:47.298Z,203.50
2024-01-31T23:00:15.777Z,191.00
2024-01-31T23:02:43.978Z,172.00
2024-01-31T23:05:12.151Z,175.50
2024-01-31T23:07:40.290Z,426.00
2024-01-31T23:10:08.917Z,166.00
2024-01-31T23:12:37.208Z,171.00
2024-01-31T23:15:05.668Z,182.00
2024-01-31T23:17:33.809Z,204.00
2024-01-31T23:20:02.161Z,234.00
2024-01-31T23:22:30.553Z,287.00
2024-01-31T23:24:59.025Z,283.00
2024-01-31T23:27:27.120Z,245.00
2024-01-31T23:29:55.375Z,220.00
2024-01-31T23:32:23.367Z,181.00
2024-01-31T23:34:51.518Z,145.00
2024-01-31T23:37:19.534Z,134.00
2024-01-31T23:39:47.860Z,135.25
2024-01-31T23:42:16.008Z,121.33
2024-01-31T23:44:44.147Z,138.00
2024-01-31T23:47:12.146Z,120.00
2024-01-31T23:49:40.341Z,141.00
2024-01-31T23:52:08.468Z,137.50
2024-01-31T23:54:36.454Z,177.00
2024-01-31T23:57:04.838Z,175.00
2024-01-31T23:59:33.041Z,162.00
